Terminal Aerodrome Forecast
Issued by NWS

Home | Current Version | Previous Version | Text Only | Print | Product List | Glossary On
Versions: 1 2 3 4 5 6 7 8 9 10 11 12 13 14 15 16 17 18 19 20 21 22 23 24
000
FTUS41 KBGM 020500 RRA
TAFITH
TAF
KITH 020542Z 0206/0306 16010KT P6SM SCT040 BKN100
      TEMPO 0208/0211 3SM -SHRA BR OVC025
     FM021100 21008KT P6SM BKN050
      TEMPO 0211/0213 3SM BR OVC015
     FM022000 25008KT P6SM BKN040
      TEMPO 0220/0222 3SM TSRA BR OVC025CB
     FM022200 33008KT P6SM SCT015 BKN060
     FM030000 27005KT P6SM BKN015=

USA.gov is the U.S. government's official web portal to all federal, state and local government web resources and services.